sensor_id;sensor_type;location;lat;lon;timestamp;pressure;altitude;pressure_sealevel;temperature;humidity
78144;BME280;67394;52.522;13.622;2023-10-08T00:00:41;101176.06;;;10.70;100.00
78144;BME280;67394;52.522;13.622;2023-10-08T00:03:09;101183.00;;;10.82;100.00
78144;BME280;67394;52.522;13.622;2023-10-08T00:05:37;101182.97;;;10.76;100.00
78144;BME280;67394;52.522;13.622;2023-10-08T00:08:04;101200.94;;;10.77;100.00
78144;BME280;67394;52.522;13.622;2023-10-08T00:10:38;101210.31;;;10.77;100.00
78144;BME280;67394;52.522;13.622;2023-10-08T00:13:05;101206.06;;;10.77;100.00
78144;BME280;67394;52.522;13.622;2023-10-08T00:15:32;101192.38;;;10.77;100.00
78144;BME280;67394;52.522;13.622;2023-10-08T00:17:59;101195.75;;;10.74;100.00
78144;BME280;67394;52.522;13.622;2023-10-08T00:20:25;101185.47;;;10.71;100.00
78144;BME280;67394;52.522;13.622;2023-10-08T00:22:52;101193.19;;;10.70;100.00
78144;BME280;67394;52.522;13.622;2023-10-08T00:25:18;101198.31;;;10.74;100.00
78144;BME280;67394;52.522;13.622;2023-10-08T00:27:45;101197.53;;;10.78;100.00
78144;BME280;67394;52.522;13.622;2023-10-08T00:30:12;101207.78;;;10.78;100.00
78144;BME280;67394;52.522;13.622;2023-10-08T00:32:39;101203.53;;;10.80;100.00
78144;BME280;67394;52.522;13.622;2023-10-08T00:35:06;101214.59;;;10.76;100.00
78144;BME280;67394;52.522;13.622;2023-10-08T00:37:32;101219.69;;;10.73;100.00
78144;BME280;67394;52.522;13.622;2023-10-08T00:39:59;101204.38;;;10.79;100.00
78144;BME280;67394;52.522;13.622;2023-10-08T00:42:26;101218.03;;;10.80;100.00
78144;BME280;67394;52.522;13.622;2023-10-08T00:44:52;101226.59;;;10.80;100.00
78144;BME280;67394;52.522;13.622;2023-10-08T00:47:19;101220.53;;;10.74;100.00
78144;BME280;67394;52.522;13.622;2023-10-08T00:49:45;101221.47;;;10.80;100.00
78144;BME280;67394;52.522;13.622;2023-10-08T00:52:13;101230.88;;;10.83;100.00
78144;BME280;67394;52.522;13.622;2023-10-08T00:54:42;101231.72;;;10.79;100.00
78144;BME280;67394;52.522;13.622;2023-10-08T00:57:09;101230.00;;;10.78;100.00
78144;BME280;67394;52.522;13.622;2023-10-08T00:59:35;101236.84;;;10.80;100.00
78144;BME280;67394;52.522;13.622;2023-10-08T01:02:02;101229.16;;;10.80;100.00
78144;BME280;67394;52.522;13.622;2023-10-08T01:04:31;101240.28;;;10.82;100.00
78144;BME280;67394;52.522;13.622;2023-10-08T01:06:57;101244.50;;;10.76;100.00
78144;BME280;67394;52.522;13.622;2023-10-08T01:09:25;101243.63;;;10.75;100.00
78144;BME280;67394;52.522;13.622;2023-10-08T01:12:27;101232.53;;;10.76;100.00
78144;BME280;67394;52.522;13.622;2023-10-08T01:14:54;101224.00;;;10.76;100.00
78144;BME280;67394;52.522;13.622;2023-10-08T01:17:22;101224.84;;;10.76;100.00
78144;BME280;67394;52.522;13.622;2023-10-08T01:19:48;101235.97;;;10.78;100.00
78144;BME280;67394;52.522;13.622;2023-10-08T01:22:15;101243.69;;;10.78;100.00
78144;BME280;67394;52.522;13.622;2023-10-08T01:24:42;101251.34;;;10.75;100.00
78144;BME280;67394;52.522;13.622;2023-10-08T01:27:09;101242.75;;;10.73;100.00
78144;BME280;67394;52.522;13.622;2023-10-08T01:29:35;101242.78;;;10.75;100.00
78144;BME280;67394;52.522;13.622;2023-10-08T01:32:03;101247.94;;;10.76;100.00
78144;BME280;67394;52.522;13.622;2023-10-08T01:34:29;101237.63;;;10.73;100.00
78144;BME280;67394;52.522;13.622;2023-10-08T01:36:56;101242.78;;;10.75;100.00
78144;BME280;67394;52.522;13.622;2023-10-08T01:39:23;101243.63;;;10.75;100.00
78144;BME280;67394;52.522;13.622;2023-10-08T01:41:49;101249.59;;;10.73;100.00
78144;BME280;67394;52.522;13.622;2023-10-08T01:44:16;101251.34;;;10.75;100.00
78144;BME280;67394;52.522;13.622;2023-10-08T01:46:43;101257.34;;;10.77;100.00
78144;BME280;67394;52.522;13.622;2023-10-08T01:49:09;101274.41;;;10.75;100.00
78144;BME280;67394;52.522;13.622;2023-10-08T01:51:37;101265.91;;;10.78;100.00
78144;BME280;67394;52.522;13.622;2023-10-08T01:54:03;101282.09;;;10.74;100.00
78144;BME280;67394;52.522;13.622;2023-10-08T01:56:31;101284.63;;;10.69;100.00
78144;BME280;67394;52.522;13.622;2023-10-08T01:58:58;101289.75;;;10.71;100.00
78144;BME280;67394;52.522;13.622;2023-10-08T02:01:26;101293.91;;;10.59;100.00
78144;BME280;67394;52.522;13.622;2023-10-08T02:03:53;101291.34;;;10.58;100.00
78144;BME280;67394;52.522;13.622;2023-10-08T02:06:20;101299.88;;;10.60;100.00
78144;BME280;67394;52.522;13.622;2023-10-08T02:08:49;101307.59;;;10.61;100.00
78144;BME280;67394;52.522;13.622;2023-10-08T02:11:16;101293.91;;;10.61;100.00
78144;BME280;67394;52.522;13.622;2023-10-08T02:13:42;101301.69;;;10.67;100.00
78144;BME280;67394;52.522;13.622;2023-10-08T02:16:09;101288.78;;;10.59;100.00
78144;BME280;67394;52.522;13.622;2023-10-08T02:18:36;101293.94;;;10.62;100.00
78144;BME280;67394;52.522;13.622;2023-10-08T02:21:02;101297.31;;;10.60;100.00
78144;BME280;67394;52.522;13.622;2023-10-08T02:23:29;101316.16;;;10.63;100.00
78144;BME280;67394;52.522;13.622;2023-10-08T02:25:55;101332.34;;;10.59;100.00
78144;BME280;67394;52.522;13.622;2023-10-08T02:28:22;101344.31;;;10.56;100.00
78144;BME280;67394;52.522;13.622;2023-10-08T02:30:49;101343.47;;;10.60;100.00
78144;BME280;67394;52.522;13.622;2023-10-08T02:33:15;101360.53;;;10.56;100.00
78144;BME280;67394;52.522;13.622;2023-10-08T02:35:43;101376.75;;;10.54;100.00
78144;BME280;67394;52.522;13.622;2023-10-08T02:38:16;101388.75;;;10.56;100.00
78144;BME280;67394;52.522;13.622;2023-10-08T02:40:43;101375.06;;;10.56;100.00
78144;BME280;67394;52.522;13.622;2023-10-08T02:43:10;101373.31;;;10.53;100.00
78144;BME280;67394;52.522;13.622;2023-10-08T02:45:37;101369.06;;;10.55;100.00
78144;BME280;67394;52.522;13.622;2023-10-08T02:48:05;101369.13;;;10.58;100.00
78144;BME280;67394;52.522;13.622;2023-10-08T02:50:32;101370.81;;;10.59;100.00
78144;BME280;67394;52.522;13.622;2023-10-08T02:52:59;101368.28;;;10.62;100.00
78144;BME280;67394;52.522;13.622;2023-10-08T02:55:27;101363.13;;;10.61;100.00
78144;BME280;67394;52.522;13.622;2023-10-08T02:57:55;101364.00;;;10.58;100.00
78144;BME280;67394;52.522;13.622;2023-10-08T03:00:22;101363.13;;;10.61;100.00
78144;BME280;67394;52.522;13.622;2023-10-08T03:02:48;101374.19;;;10.54;100.00
78144;BME280;67394;52.522;13.622;2023-10-08T03:05:15;101375.09;;;10.57;100.00
78144;BME280;67394;52.522;13.622;2023-10-08T03:07:41;101368.25;;;10.59;100.00
78144;BME280;67394;52.522;13.622;2023-10-08T03:10:10;101348.59;;;10.57;100.00
78144;BME280;67394;52.522;13.622;2023-10-08T03:12:37;101356.25;;;10.55;100.00
78144;BME280;67394;52.522;13.622;2023-10-08T03:15:03;101373.41;;;10.61;100.00
78144;BME280;67394;52.522;13.622;2023-10-08T03:17:30;101381.03;;;10.55;100.00
78144;BME280;67394;52.522;13.622;2023-10-08T03:19:58;101375.88;;;10.53;100.00
78144;BME280;67394;52.522;13.622;2023-10-08T03:22:24;101377.66;;;10.57;100.00
78144;BME280;67394;52.522;13.622;2023-10-08T03:24:52;101398.03;;;10.50;100.00
78144;BME280;67394;52.522;13.622;2023-10-08T03:27:18;101397.16;;;10.45;100.00
78144;BME280;67394;52.522;13.622;2023-10-08T03:29:45;101392.03;;;10.45;100.00
78144;BME280;67394;52.522;13.622;2023-10-08T03:32:13;101391.97;;;10.42;100.00
78144;BME280;67394;52.522;13.622;2023-10-08T03:34:44;101399.63;;;10.40;100.00
78144;BME280;67394;52.522;13.622;2023-10-08T03:37:11;101403.88;;;10.37;100.00
78144;BME280;67394;52.522;13.622;2023-10-08T03:39:38;101397.16;;;10.45;100.00
78144;BME280;67394;52.522;13.622;2023-10-08T03:42:04;101414.19;;;10.41;100.00
78144;BME280;67394;52.522;13.622;2023-10-08T03:44:31;101419.28;;;10.38;100.00
78144;BME280;67394;52.522;13.622;2023-10-08T03:46:58;101423.56;;;10.38;100.00
78144;BME280;67394;52.522;13.622;2023-10-08T03:49:25;101436.28;;;10.32;100.00
78144;BME280;67394;52.522;13.622;2023-10-08T03:51:52;101431.25;;;10.38;100.00
78144;BME280;67394;52.522;13.622;2023-10-08T03:54:22;101439.72;;;10.34;100.00
78144;BME280;67394;52.522;13.622;2023-10-08T03:56:48;101454.25;;;10.35;100.00
78144;BME280;67394;52.522;13.622;2023-10-08T03:59:15;101463.69;;;10.39;100.00
78144;BME280;67394;52.522;13.622;2023-10-08T04:01:42;101474.81;;;10.38;100.00
78144;BME280;67394;52.522;13.622;2023-10-08T04:04:08;101471.31;;;10.33;100.00
78144;BME280;67394;52.522;13.622;2023-10-08T04:06:35;101472.13;;;10.32;100.00
78144;BME280;67394;52.522;13.622;2023-10-08T04:09:05;101469.59;;;10.32;100.00
78144;BME280;67394;52.522;13.622;2023-10-08T04:11:31;101471.22;;;10.26;100.00
78144;BME280;67394;52.522;13.622;2023-10-08T04:14:00;101485.75;;;10.29;100.00
78144;BME280;67394;52.522;13.622;2023-10-08T04:16:26;101477.22;;;10.28;100.00
78144;BME280;67394;52.522;13.622;2023-10-08T04:18:56;101472.94;;;10.29;100.00
78144;BME280;67394;52.522;13.622;2023-10-08T04:21:23;101482.44;;;10.35;100.00
78144;BME280;67394;52.522;13.622;2023-10-08T04:23:49;101494.38;;;10.33;100.00
78144;BME280;67394;52.522;13.622;2023-10-08T04:26:16;101505.44;;;10.32;100.00
78144;BME280;67394;52.522;13.622;2023-10-08T04:28:43;101502.94;;;10.35;100.00
78144;BME280;67394;52.522;13.622;2023-10-08T04:31:09;101511.44;;;10.32;100.00
78144;BME280;67394;52.522;13.622;2023-10-08T04:33:36;101517.41;;;10.31;100.00
78144;BME280;67394;52.522;13.622;2023-10-08T04:36:03;101511.38;;;10.29;100.00
78144;BME280;67394;52.522;13.622;2023-10-08T04:38:29;101518.16;;;10.24;100.00
78144;BME280;67394;52.522;13.622;2023-10-08T04:40:56;101533.56;;;10.25;100.00
78144;BME280;67394;52.522;13.622;2023-10-08T04:43:24;101534.34;;;10.21;100.00
78144;BME280;67394;52.522;13.622;2023-10-08T04:45:51;101535.22;;;10.22;100.00
78144;BME280;67394;52.522;13.622;2023-10-08T04:48:18;101523.94;;;10.12;100.00
78144;BME280;67394;52.522;13.622;2023-10-08T04:50:47;101524.69;;;10.05;100.00
78144;BME280;67394;52.522;13.622;2023-10-08T04:53:14;101525.41;;;9.98;100.00
78144;BME280;67394;52.522;13.622;2023-10-08T04:55:40;101541.56;;;9.94;100.00
78144;BME280;67394;52.522;13.622;2023-10-08T04:58:08;101546.72;;;9.96;100.00
78144;BME280;67394;52.522;13.622;2023-10-08T05:00:35;101548.31;;;9.89;100.00
78144;BME280;67394;52.522;13.622;2023-10-08T05:03:02;101537.91;;;9.80;100.00
78144;BME280;67394;52.522;13.622;2023-10-08T05:05:30;101542.13;;;9.78;100.00
78144;BME280;67394;52.522;13.622;2023-10-08T05:07:56;101559.97;;;9.72;100.00
78144;BME280;67394;52.522;13.622;2023-10-08T05:10:23;101566.84;;;9.76;100.00
78144;BME280;67394;52.522;13.622;2023-10-08T05:12:50;101569.31;;;9.70;100.00
78144;BME280;67394;52.522;13.622;2023-10-08T05:15:17;101577.69;;;9.61;100.00
78144;BME280;67394;52.522;13.622;2023-10-08T05:17:45;101585.28;;;9.57;100.00
78144;BME280;67394;52.522;13.622;2023-10-08T05:20:12;101582.66;;;9.52;100.00
78144;BME280;67394;52.522;13.622;2023-10-08T05:22:39;101587.00;;;9.58;100.00
78144;BME280;67394;52.522;13.622;2023-10-08T05:25:06;101580.09;;;9.53;100.00
78144;BME280;67394;52.522;13.622;2023-10-08T05:27:37;101586.94;;;9.53;100.00
78144;BME280;67394;52.522;13.622;2023-10-08T05:30:04;101598.72;;;9.46;100.00
78144;BME280;67394;52.522;13.622;2023-10-08T05:32:31;101609.75;;;9.44;100.00
78144;BME280;67394;52.522;13.622;2023-10-08T05:34:57;101613.00;;;9.35;100.00
78144;BME280;67394;52.522;13.622;2023-10-08T05:37:25;101616.44;;;9.36;100.00
78144;BME280;67394;52.522;13.622;2023-10-08T05:39:53;101630.88;;;9.32;100.00
78144;BME280;67394;52.522;13.622;2023-10-08T05:42:20;101627.44;;;9.32;100.00
78144;BME280;67394;52.522;13.622;2023-10-08T05:44:46;101623.16;;;9.31;100.00
78144;BME280;67394;52.522;13.622;2023-10-08T05:47:13;101628.31;;;9.32;100.00
78144;BME280;67394;52.522;13.622;2023-10-08T05:49:40;101639.50;;;9.37;100.00
78144;BME280;67394;52.522;13.622;2023-10-08T05:52:06;101639.41;;;9.34;100.00
78144;BME280;67394;52.522;13.622;2023-10-08T05:54:33;101647.06;;;9.31;100.00
78144;BME280;67394;52.522;13.622;2023-10-08T05:57:00;101653.88;;;9.31;100.00
78144;BME280;67394;52.522;13.622;2023-10-08T05:59:28;101650.44;;;9.30;100.00
78144;BME280;67394;52.522;13.622;2023-10-08T06:01:55;101647.03;;;9.30;100.00
78144;BME280;67394;52.522;13.622;2023-10-08T06:04:21;101661.50;;;9.29;100.00
78144;BME280;67394;52.522;13.622;2023-10-08T06:06:48;101670.94;;;9.32;100.00
78144;BME280;67394;52.522;13.622;2023-10-08T06:09:15;101688.16;;;9.39;100.00
78144;BME280;67394;52.522;13.622;2023-10-08T06:11:42;101687.31;;;9.40;100.00
78144;BME280;67394;52.522;13.622;2023-10-08T06:14:08;101691.66;;;9.44;100.00
78144;BME280;67394;52.522;13.622;2023-10-08T06:16:35;101692.69;;;9.53;100.00
78144;BME280;67394;52.522;13.622;2023-10-08T06:19:01;101703.84;;;9.55;100.00
78144;BME280;67394;52.522;13.622;2023-10-08T06:21:28;101712.34;;;9.53;100.00
78144;BME280;67394;52.522;13.622;2023-10-08T06:23:55;101720.97;;;9.58;100.00
78144;BME280;67394;52.522;13.622;2023-10-08T06:26:21;101738.91;;;9.60;100.00
78144;BME280;67394;52.522;13.622;2023-10-08T06:28:48;101733.06;;;9.67;100.00
78144;BME280;67394;52.522;13.622;2023-10-08T06:31:15;101732.31;;;9.71;100.00
78144;BME280;67394;52.522;13.622;2023-10-08T06:33:43;101735.81;;;9.74;100.00
78144;BME280;67394;52.522;13.622;2023-10-08T06:36:10;101735.03;;;9.78;100.00
78144;BME280;67394;52.522;13.622;2023-10-08T06:38:38;101740.19;;;9.80;100.00
78144;BME280;67394;52.522;13.622;2023-10-08T06:41:07;101755.66;;;9.84;100.00
78144;BME280;67394;52.522;13.622;2023-10-08T06:43:37;101759.13;;;9.88;100.00
78144;BME280;67394;52.522;13.622;2023-10-08T06:46:04;101753.25;;;9.92;100.00
78144;BME280;67394;52.522;13.622;2023-10-08T06:48:31;101752.22;;;9.84;100.00
78144;BME280;67394;52.522;13.622;2023-10-08T06:50:58;101763.47;;;9.92;100.00
78144;BME280;67394;52.522;13.622;2023-10-08T06:53:25;101769.44;;;9.91;100.00
78144;BME280;67394;52.522;13.622;2023-10-08T06:55:51;101780.50;;;9.90;100.00
78144;BME280;67394;52.522;13.622;2023-10-08T06:58:18;101786.53;;;9.92;100.00
78144;BME280;67394;52.522;13.622;2023-10-08T07:00:45;101790.00;;;9.94;100.00
78144;BME280;67394;52.522;13.622;2023-10-08T07:03:13;101788.31;;;9.96;100.00
78144;BME280;67394;52.522;13.622;2023-10-08T07:05:41;101786.44;;;9.87;100.00
78144;BME280;67394;52.522;13.622;2023-10-08T07:08:08;101784.72;;;9.88;100.00
78144;BME280;67394;52.522;13.622;2023-10-08T07:10:34;101785.66;;;9.91;100.00
78144;BME280;67394;52.522;13.622;2023-10-08T07:13:01;101799.44;;;9.98;100.00
78144;BME280;67394;52.522;13.622;2023-10-08T07:15:30;101796.16;;;10.04;100.00
78144;BME280;67394;52.522;13.622;2023-10-08T07:17:57;101800.53;;;10.09;100.00
78144;BME280;67394;52.522;13.622;2023-10-08T07:20:23;101811.75;;;10.14;100.00
78144;BME280;67394;52.522;13.622;2023-10-08T07:22:50;101805.06;;;10.21;100.00
78144;BME280;67394;52.522;13.622;2023-10-08T07:25:17;101812.75;;;10.21;100.00
78144;BME280;67394;52.522;13.622;2023-10-08T07:27:43;101811.97;;;10.23;100.00
78144;BME280;67394;52.522;13.622;2023-10-08T07:30:13;101812.06;;;10.30;100.00
78144;BME280;67394;52.522;13.622;2023-10-08T07:32:40;101830.09;;;10.34;100.00
78144;BME280;67394;52.522;13.622;2023-10-08T07:35:07;101837.03;;;10.40;100.00
78144;BME280;67394;52.522;13.622;2023-10-08T07:37:34;101848.19;;;10.42;100.00
78144;BME280;67394;52.522;13.622;2023-10-08T07:40:00;101843.19;;;10.48;100.00
78144;BME280;67394;52.522;13.622;2023-10-08T07:42:27;101842.59;;;10.62;100.00
78144;BME280;67394;52.522;13.622;2023-10-08T07:44:54;101839.28;;;10.67;100.00
78144;BME280;67394;52.522;13.622;2023-10-08T07:47:22;101853.03;;;10.72;100.00
78144;BME280;67394;52.522;13.622;2023-10-08T07:49:48;101844.69;;;10.83;100.00
78144;BME280;67394;52.522;13.622;2023-10-08T07:52:15;101846.44;;;10.86;100.00
78144;BME280;67394;52.522;13.622;2023-10-08T07:54:42;101856.66;;;10.83;100.00
78144;BME280;67394;52.522;13.622;2023-10-08T07:57:09;101855.03;;;10.88;100.00
78144;BME280;67394;52.522;13.622;2023-10-08T07:59:37;101856.94;;;10.98;100.00
78144;BME280;67394;52.522;13.622;2023-10-08T08:02:09;101867.19;;;10.98;100.00
78144;BME280;67394;52.522;13.622;2023-10-08T08:04:37;101862.88;;;10.95;99.01
78144;BME280;67394;52.522;13.622;2023-10-08T08:07:05;101864.00;;;11.11;100.00
78144;BME280;67394;52.522;13.622;2023-10-08T08:09:31;101878.38;;;11.02;100.00
78144;BME280;67394;52.522;13.622;2023-10-08T08:11:58;101876.72;;;11.05;100.00
78144;BME280;67394;52.522;13.622;2023-10-08T08:14:24;101876.91;;;11.16;99.20
78144;BME280;67394;52.522;13.622;2023-10-08T08:16:51;101877.69;;;11.13;98.72
78144;BME280;67394;52.522;13.622;2023-10-08T08:19:18;101877.69;;;11.12;100.00
78144;BME280;67394;52.522;13.622;2023-10-08T08:21:44;101882.81;;;11.10;99.87
78144;BME280;67394;52.522;13.622;2023-10-08T08:24:14;101893.16;;;11.16;100.00
78144;BME280;67394;52.522;13.622;2023-10-08T08:26:40;101901.66;;;11.14;100.00
78144;BME280;67394;52.522;13.622;2023-10-08T08:29:07;101902.66;;;11.20;100.00
78144;BME280;67394;52.522;13.622;2023-10-08T08:31:33;101906.25;;;11.30;100.00
78144;BME280;67394;52.522;13.622;2023-10-08T08:34:00;101900.19;;;11.26;100.00
78144;BME280;67394;52.522;13.622;2023-10-08T08:36:27;101896.00;;;11.31;100.00
78144;BME280;67394;52.522;13.622;2023-10-08T08:38:54;101901.31;;;11.42;96.86
78144;BME280;67394;52.522;13.622;2023-10-08T08:41:21;101909.91;;;11.46;94.03
78144;BME280;67394;52.522;13.622;2023-10-08T08:43:52;101910.75;;;11.45;94.99
78144;BME280;67394;52.522;13.622;2023-10-08T08:46:18;101924.63;;;11.54;97.47
78144;BME280;67394;52.522;13.622;2023-10-08T08:48:46;101916.19;;;11.63;91.99
78144;BME280;67394;52.522;13.622;2023-10-08T08:51:14;101917.13;;;11.69;98.25
78144;BME280;67394;52.522;13.622;2023-10-08T08:53:41;101928.41;;;11.78;94.86
78144;BME280;67394;52.522;13.622;2023-10-08T08:56:08;101929.41;;;11.86;92.06
78144;BME280;67394;52.522;13.622;2023-10-08T08:58:36;101933.81;;;11.94;91.37
78144;BME280;67394;52.522;13.622;2023-10-08T09:01:06;101935.34;;;11.82;88.80
78144;BME280;67394;52.522;13.622;2023-10-08T09:03:33;101932.16;;;11.96;90.68
78144;BME280;67394;52.522;13.622;2023-10-08T09:06:00;101940.00;;;12.07;88.44
78144;BME280;67394;52.522;13.622;2023-10-08T09:08:28;101950.38;;;12.15;83.64
78144;BME280;67394;52.522;13.622;2023-10-08T09:10:57;101940.28;;;12.27;88.53
78144;BME280;67394;52.522;13.622;2023-10-08T09:13:24;101940.47;;;12.43;90.31
78144;BME280;67394;52.522;13.622;2023-10-08T09:15:51;101950.00;;;12.51;80.83
78144;BME280;67394;52.522;13.622;2023-10-08T09:18:22;101946.69;;;12.61;83.57
78144;BME280;67394;52.522;13.622;2023-10-08T09:20:48;101946.84;;;12.73;84.49
78144;BME280;67394;52.522;13.622;2023-10-08T09:23:16;101943.44;;;12.75;78.43
78144;BME280;67394;52.522;13.622;2023-10-08T09:25:44;101944.34;;;12.77;81.08
78144;BME280;67394;52.522;13.622;2023-10-08T09:28:12;101949.25;;;12.61;72.34
78144;BME280;67394;52.522;13.622;2023-10-08T09:30:39;101948.59;;;12.75;77.31
78144;BME280;67394;52.522;13.622;2023-10-08T09:33:29;101943.50;;;12.78;76.90
78144;BME280;67394;52.522;13.622;2023-10-08T09:35:58;101943.56;;;12.86;75.19
78144;BME280;67394;52.522;13.622;2023-10-08T09:38:25;101947.06;;;12.91;73.69
78144;BME280;67394;52.522;13.622;2023-10-08T09:40:51;101948.75;;;12.89;72.16
78144;BME280;67394;52.522;13.622;2023-10-08T09:43:18;101954.00;;;12.98;73.85
78144;BME280;67394;52.522;13.622;2023-10-08T09:45:53;101955.78;;;13.07;72.54
78144;BME280;67394;52.522;13.622;2023-10-08T09:48:22;101959.16;;;13.00;74.49
78144;BME280;67394;52.522;13.622;2023-10-08T09:50:52;101959.25;;;13.07;68.30
78144;BME280;67394;52.522;13.622;2023-10-08T09:53:31;101960.13;;;13.09;73.65
78144;BME280;67394;52.522;13.622;2023-10-08T09:56:08;101961.97;;;13.19;75.00
78144;BME280;67394;52.522;13.622;2023-10-08T09:58:38;101963.88;;;13.39;72.73
78144;BME280;67394;52.522;13.622;2023-10-08T10:01:06;101968.16;;;13.38;71.08
78144;BME280;67394;52.522;13.622;2023-10-08T10:03:33;101968.16;;;13.40;74.00
78144;BME280;67394;52.522;13.622;2023-10-08T10:06:00;101968.97;;;13.36;70.57
78144;BME280;67394;52.522;13.622;2023-10-08T10:08:27;101970.78;;;13.46;70.07
78144;BME280;67394;52.522;13.622;2023-10-08T10:11:00;101967.47;;;13.54;68.59
78144;BME280;67394;52.522;13.622;2023-10-08T10:13:28;101977.84;;;13.67;61.50
78144;BME280;67394;52.522;13.622;2023-10-08T10:15:55;101966.69;;;13.66;54.69
78144;BME280;67394;52.522;13.622;2023-10-08T10:20:59;101977.81;;;13.61;52.58
78144;BME280;67394;52.522;13.622;2023-10-08T10:23:40;101976.91;;;13.59;54.72
78144;BME280;67394;52.522;13.622;2023-10-08T10:26:32;101978.69;;;13.64;57.27
78144;BME280;67394;52.522;13.622;2023-10-08T10:31:36;101986.41;;;13.63;55.35
78144;BME280;67394;52.522;13.622;2023-10-08T10:34:06;101977.81;;;13.61;52.03
78144;BME280;67394;52.522;13.622;2023-10-08T10:36:33;101983.75;;;13.56;55.30
78144;BME280;67394;52.522;13.622;2023-10-08T10:39:00;101986.53;;;13.76;56.42
78144;BME280;67394;52.522;13.622;2023-10-08T10:41:27;101990.81;;;13.79;55.99
78144;BME280;67394;52.522;13.622;2023-10-08T10:43:53;101991.72;;;13.82;58.13
78144;BME280;67394;52.522;13.622;2023-10-08T10:46:19;102000.31;;;13.81;55.14
78144;BME280;67394;52.522;13.622;2023-10-08T10:48:46;102000.28;;;13.75;52.63
78144;BME280;67394;52.522;13.622;2023-10-08T10:51:13;101994.28;;;13.81;53.63
78144;BME280;67394;52.522;13.622;2023-10-08T10:53:40;101998.63;;;13.88;55.45
78144;BME280;67394;52.522;13.622;2023-10-08T10:56:06;101997.81;;;13.92;52.96
78144;BME280;67394;52.522;13.622;2023-10-08T10:58:33;101991.84;;;14.01;49.38
78144;BME280;67394;52.522;13.622;2023-10-08T11:00:59;101988.47;;;14.11;45.18
78144;BME280;67394;52.522;13.622;2023-10-08T11:03:26;101992.81;;;14.13;50.03
78144;BME280;67394;52.522;13.622;2023-10-08T11:05:56;101987.00;;;14.40;52.37
78144;BME280;67394;52.522;13.622;2023-10-08T11:08:26;101981.84;;;14.40;52.98
78144;BME280;67394;52.522;13.622;2023-10-08T11:10:53;101984.34;;;14.37;49.01
78144;BME280;67394;52.522;13.622;2023-10-08T11:13:20;101986.16;;;14.46;51.41
78144;BME280;67394;52.522;13.622;2023-10-08T11:15:50;101990.50;;;14.50;48.36
78144;BME280;67394;52.522;13.622;2023-10-08T11:18:23;101985.31;;;14.54;46.69
78144;BME280;67394;52.522;13.622;2023-10-08T11:20:51;101985.44;;;14.79;48.53
78144;BME280;67394;52.522;13.622;2023-10-08T11:26:10;101976.88;;;14.95;51.20
78144;BME280;67394;52.522;13.622;2023-10-08T11:28:39;101970.84;;;14.91;50.64
78144;BME280;67394;52.522;13.622;2023-10-08T11:31:06;101972.63;;;15.03;46.55
78144;BME280;67394;52.522;13.622;2023-10-08T11:33:37;101980.31;;;14.97;48.42
78144;BME280;67394;52.522;13.622;2023-10-08T11:36:05;101988.00;;;14.76;47.64
78144;BME280;67394;52.522;13.622;2023-10-08T11:38:41;101989.63;;;14.55;49.00
78144;BME280;67394;52.522;13.622;2023-10-08T11:41:12;101987.06;;;14.55;49.08
78144;BME280;67394;52.522;13.622;2023-10-08T11:43:38;101987.06;;;14.55;47.23
78144;BME280;67394;52.522;13.622;2023-10-08T11:46:05;101986.34;;;14.90;50.08
78144;BME280;67394;52.522;13.622;2023-10-08T11:48:31;101977.69;;;14.83;46.28
78144;BME280;67394;52.522;13.622;2023-10-08T11:50:58;101976.03;;;14.99;47.41
78144;BME280;67394;52.522;13.622;2023-10-08T11:53:25;101982.91;;;14.92;47.78
78144;BME280;67394;52.522;13.622;2023-10-08T11:55:51;101973.41;;;14.81;47.25
78144;BME280;67394;52.522;13.622;2023-10-08T11:58:18;101981.19;;;14.90;47.32
78144;BME280;67394;52.522;13.622;2023-10-08T12:00:45;101983.81;;;15.04;49.56
78144;BME280;67394;52.522;13.622;2023-10-08T12:03:14;101981.19;;;14.96;45.28
78144;BME280;67394;52.522;13.622;2023-10-08T12:05:41;101989.72;;;14.77;44.39
78144;BME280;67394;52.522;13.622;2023-10-08T12:08:08;101990.56;;;14.73;47.38
78144;BME280;67394;52.522;13.622;2023-10-08T12:10:34;101990.59;;;14.79;45.28
78144;BME280;67394;52.522;13.622;2023-10-08T12:13:01;101984.59;;;14.84;45.84
78144;BME280;67394;52.522;13.622;2023-10-08T12:15:27;101993.19;;;14.86;48.59
78144;BME280;67394;52.522;13.622;2023-10-08T12:17:54;102002.75;;;15.04;49.56
78144;BME280;67394;52.522;13.622;2023-10-08T12:20:21;102008.66;;;14.71;47.14
78144;BME280;67394;52.522;13.622;2023-10-08T12:22:49;101992.44;;;15.13;47.10
78144;BME280;67394;52.522;13.622;2023-10-08T12:25:16;101999.38;;;15.45;46.24
78144;BME280;67394;52.522;13.622;2023-10-08T12:27:42;101996.81;;;15.80;47.19
78144;BME280;67394;52.522;13.622;2023-10-08T12:30:10;101989.91;;;15.41;45.32
78144;BME280;67394;52.522;13.622;2023-10-08T12:32:37;101978.66;;;15.20;43.13
78144;BME280;67394;52.522;13.622;2023-10-08T12:35:04;101971.84;;;15.59;46.22
78144;BME280;67394;52.522;13.622;2023-10-08T12:37:32;101974.44;;;15.60;46.91
78144;BME280;67394;52.522;13.622;2023-10-08T12:39:59;101979.63;;;15.76;45.10
78144;BME280;67394;52.522;13.622;2023-10-08T12:42:26;101977.00;;;15.80;43.81
78144;BME280;67394;52.522;13.622;2023-10-08T12:44:53;101968.38;;;15.90;44.44